createdAt,value
2017-03-12T00:00:09.759Z,990.23
2017-03-12T00:01:20.481Z,990.19
2017-03-12T00:02:30.781Z,990.19
2017-03-12T00:03:41.495Z,990.23
2017-03-12T00:04:52.205Z,990.2
2017-03-12T00:06:02.909Z,990.19
2017-03-12T00:07:13.214Z,990.14
2017-03-12T00:08:23.948Z,990.15
2017-03-12T00:09:34.701Z,990.16
2017-03-12T00:10:45.441Z,990.15
2017-03-12T00:11:56.140Z,990.14
2017-03-12T00:13:06.057Z,990.11
2017-03-12T00:14:16.777Z,990.1
2017-03-12T00:15:27.480Z,990.1
2017-03-12T00:16:38.190Z,990.13
2017-03-12T00:17:48.895Z,990.13
2017-03-12T00:18:59.208Z,990.15
2017-03-12T00:20:09.930Z,990.13
2017-03-12T00:21:20.635Z,990.13
2017-03-12T00:22:30.960Z,990.1
2017-03-12T00:23:41.670Z,990.1
2017-03-12T00:24:52.370Z,990.12
2017-03-12T00:26:03.073Z,990.1
2017-03-12T00:27:13.383Z,990.11
2017-03-12T00:28:24.118Z,990.07
2017-03-12T00:29:34.838Z,990.04
2017-03-12T00:30:45.569Z,990.07
2017-03-12T00:31:56.287Z,990.08
2017-03-12T00:33:07.000Z,990.01
2017-03-12T00:34:17.333Z,990
2017-03-12T00:35:28.054Z,990.01
2017-03-12T00:36:38.812Z,990.02
2017-03-12T00:37:49.525Z,990.03
2017-03-12T00:39:00.249Z,989.98
2017-03-12T00:40:10.590Z,989.98
2017-03-12T00:41:21.318Z,990
2017-03-12T00:42:32.049Z,989.97
2017-03-12T00:43:42.784Z,990
2017-03-12T00:44:53.506Z,989.97
2017-03-12T00:46:04.221Z,989.98
2017-03-12T00:47:14.949Z,989.93
2017-03-12T00:48:25.663Z,989.92
2017-03-12T00:49:36.376Z,989.96
2017-03-12T00:50:47.093Z,989.95
2017-03-12T00:51:57.799Z,989.93
2017-03-12T00:53:08.542Z,989.93
2017-03-12T00:54:19.255Z,989.92
2017-03-12T00:55:29.975Z,989.95
2017-03-12T00:56:40.293Z,989.97
2017-03-12T00:57:51.011Z,989.89
2017-03-12T00:59:01.731Z,989.87
2017-03-12T01:00:12.461Z,989.85
2017-03-12T01:01:23.197Z,989.86
2017-03-12T01:02:33.914Z,989.85
2017-03-12T01:03:44.613Z,989.85
2017-03-12T01:04:55.334Z,989.82
2017-03-12T01:06:06.042Z,989.84
2017-03-12T01:07:16.786Z,989.82
2017-03-12T01:08:27.098Z,989.83
2017-03-12T01:09:37.827Z,989.79
2017-03-12T01:10:48.164Z,989.82
2017-03-12T01:11:58.897Z,989.82
2017-03-12T01:13:09.203Z,989.8
2017-03-12T01:14:19.526Z,989.87
2017-03-12T01:15:30.239Z,989.83
2017-03-12T01:16:40.943Z,989.81
2017-03-12T01:17:51.266Z,989.78
2017-03-12T01:19:01.989Z,989.75
2017-03-12T01:20:12.701Z,989.74
2017-03-12T01:21:23.416Z,989.74
2017-03-12T01:22:34.146Z,989.75
2017-03-12T01:23:44.859Z,989.74
2017-03-12T01:24:55.564Z,989.71
2017-03-12T01:26:06.288Z,989.64
2017-03-12T01:27:17.018Z,989.67
2017-03-12T01:28:27.344Z,989.62
2017-03-12T01:29:38.058Z,989.68
2017-03-12T01:30:48.772Z,989.63
2017-03-12T01:31:59.496Z,989.61
2017-03-12T01:33:10.220Z,989.62
2017-03-12T01:34:20.948Z,989.6
2017-03-12T01:35:31.256Z,989.62
2017-03-12T01:36:41.981Z,989.56
2017-03-12T01:37:52.326Z,989.57
2017-03-12T01:39:03.053Z,989.56
2017-03-12T01:40:13.775Z,989.57
2017-03-12T01:41:24.487Z,989.62
2017-03-12T01:42:35.230Z,989.51
2017-03-12T01:43:45.928Z,989.57
2017-03-12T01:44:56.644Z,989.54
2017-03-12T01:46:07.383Z,989.54
2017-03-12T01:47:18.112Z,989.59
2017-03-12T01:48:28.430Z,989.57
2017-03-12T01:49:39.152Z,989.53
2017-03-12T01:50:49.871Z,989.55
2017-03-12T01:52:00.621Z,989.51
2017-03-12T01:53:10.935Z,989.51
2017-03-12T01:54:21.659Z,989.54
2017-03-12T01:55:31.974Z,989.51
2017-03-12T01:56:42.701Z,989.54
2017-03-12T01:57:53.019Z,989.52
2017-03-12T01:59:03.744Z,989.52
2017-03-12T02:00:14.476Z,989.52
2017-03-12T02:01:25.194Z,989.55
2017-03-12T02:02:35.522Z,989.52
2017-03-12T02:03:46.236Z,989.56
2017-03-12T02:04:56.967Z,989.53
2017-03-12T02:06:07.683Z,989.56
2017-03-12T02:07:18.415Z,989.52
2017-03-12T02:08:29.117Z,989.6
2017-03-12T02:09:39.475Z,989.55
2017-03-12T02:10:50.205Z,989.49
2017-03-12T02:12:00.908Z,989.52
2017-03-12T02:13:11.233Z,989.49
2017-03-12T02:14:21.956Z,989.46
2017-03-12T02:15:32.673Z,989.48
2017-03-12T02:16:43.389Z,989.45
2017-03-12T02:17:54.111Z,989.44
2017-03-12T02:19:04.838Z,989.41
2017-03-12T02:20:15.564Z,989.43
2017-03-12T02:21:25.888Z,989.43
2017-03-12T02:22:36.209Z,989.41
2017-03-12T02:23:46.945Z,989.4
2017-03-12T02:24:57.667Z,989.4
2017-03-12T02:26:08.376Z,989.41
2017-03-12T02:27:18.693Z,989.39
2017-03-12T02:28:29.415Z,989.38
2017-03-12T02:29:40.135Z,989.35
2017-03-12T02:30:50.847Z,989.36
2017-03-12T02:32:01.577Z,989.35
2017-03-12T02:33:12.285Z,989.34
2017-03-12T02:34:22.607Z,989.33
2017-03-12T02:35:32.923Z,989.32
2017-03-12T02:36:43.649Z,989.36
2017-03-12T02:37:54.427Z,989.38
2017-03-12T02:39:05.164Z,989.32
2017-03-12T02:40:15.867Z,989.37
2017-03-12T02:41:26.185Z,989.37
2017-03-12T02:42:36.910Z,989.35
2017-03-12T02:43:47.635Z,989.41
2017-03-12T02:44:58.354Z,989.4
2017-03-12T02:46:09.074Z,989.38
2017-03-12T02:47:19.415Z,989.4
2017-03-12T02:48:30.145Z,989.39
2017-03-12T02:49:40.877Z,989.4
2017-03-12T02:50:51.602Z,989.39
2017-03-12T02:52:02.332Z,989.35
2017-03-12T02:53:13.057Z,989.33
2017-03-12T02:54:23.759Z,989.34
2017-03-12T02:55:34.468Z,989.35
2017-03-12T02:56:45.219Z,989.37
2017-03-12T02:57:55.942Z,989.34
2017-03-12T02:59:06.673Z,989.3
2017-03-12T03:00:17.395Z,989.3
2017-03-12T03:01:27.721Z,989.32
2017-03-12T03:03:53.540Z,989.31
2017-03-12T03:05:04.281Z,989.31
2017-03-12T03:06:14.975Z,989.27
2017-03-12T03:07:25.311Z,989.24
2017-03-12T03:08:36.382Z,989.25
2017-03-12T03:09:46.711Z,989.23
2017-03-12T03:10:57.434Z,989.25
2017-03-12T03:12:08.158Z,989.24
2017-03-12T03:13:18.877Z,989.21
2017-03-12T03:15:43.079Z,989.2
2017-03-12T03:16:53.778Z,989.26
2017-03-12T03:18:04.508Z,989.21
2017-03-12T03:19:14.843Z,989.16
2017-03-12T03:20:25.185Z,989.15
2017-03-12T03:21:35.500Z,989.14
2017-03-12T03:22:45.825Z,989.12
2017-03-12T03:23:56.541Z,989.09
2017-03-12T03:25:07.252Z,989.11
2017-03-12T03:26:17.961Z,989.1
2017-03-12T03:27:28.287Z,989.1
2017-03-12T03:28:39.009Z,989.16
2017-03-12T03:29:49.751Z,989.13
2017-03-12T03:31:00.470Z,989.09
2017-03-12T03:32:11.186Z,989.08
2017-03-12T03:33:21.895Z,989.05
2017-03-12T03:34:32.622Z,989.06
2017-03-12T03:35:43.345Z,989.05
2017-03-12T03:36:54.058Z,989.08
2017-03-12T03:38:04.785Z,989.07
2017-03-12T03:39:15.098Z,989.04
2017-03-12T03:40:25.815Z,989.03
2017-03-12T03:41:36.523Z,989.05
2017-03-12T03:42:47.254Z,989
2017-03-12T03:43:57.956Z,989.02
2017-03-12T03:45:08.290Z,989.06
2017-03-12T03:46:18.611Z,989.03
2017-03-12T03:47:29.312Z,989.04
2017-03-12T03:48:39.624Z,989.04
2017-03-12T03:49:50.356Z,989.02
2017-03-12T03:51:01.098Z,988.98
2017-03-12T03:52:11.829Z,988.97
2017-03-12T03:53:22.546Z,989.01
2017-03-12T03:54:33.254Z,988.99
2017-03-12T03:55:43.973Z,989.05
2017-03-12T03:56:54.674Z,989.02
2017-03-12T03:58:05.386Z,989
2017-03-12T03:59:15.704Z,989.02
2017-03-12T04:00:26.407Z,989.03
2017-03-12T04:01:37.129Z,988.99
2017-03-12T04:02:47.850Z,989
2017-03-12T04:03:58.572Z,989.03
2017-03-12T04:05:09.266Z,989
2017-03-12T04:06:19.985Z,988.95
2017-03-12T04:07:30.697Z,988.95
2017-03-12T04:08:40.599Z,988.94
2017-03-12T04:09:51.316Z,988.94
2017-03-12T04:11:02.037Z,988.96
2017-03-12T04:12:12.757Z,988.95
2017-03-12T04:13:23.077Z,988.97
2017-03-12T04:14:33.785Z,988.96
2017-03-12T04:15:44.504Z,988.96
2017-03-12T04:16:55.249Z,988.95
2017-03-12T04:18:05.552Z,988.97
2017-03-12T04:19:15.858Z,988.98
2017-03-12T04:20:26.576Z,988.96
2017-03-12T04:21:37.292Z,988.97
2017-03-12T04:22:48.011Z,988.97
2017-03-12T04:23:58.726Z,988.96
2017-03-12T04:25:08.641Z,988.91
2017-03-12T04:26:19.373Z,988.91
2017-03-12T04:27:30.148Z,988.93
2017-03-12T04:28:40.488Z,988.92
2017-03-12T04:29:51.205Z,988.93
2017-03-12T04:31:01.917Z,988.91
2017-03-12T04:32:12.659Z,988.91
2017-03-12T04:33:23.381Z,988.9
2017-03-12T04:34:33.724Z,988.95
2017-03-12T04:35:44.439Z,988.94
2017-03-12T04:36:55.167Z,988.9
2017-03-12T04:38:05.881Z,988.92
2017-03-12T04:39:16.214Z,988.97
2017-03-12T04:40:26.543Z,988.92
2017-03-12T04:41:37.270Z,988.9
2017-03-12T04:42:47.990Z,988.95
2017-03-12T04:43:58.729Z,988.94
2017-03-12T04:45:09.485Z,988.96
2017-03-12T04:46:20.208Z,988.96
2017-03-12T04:47:30.938Z,988.94
2017-03-12T04:48:41.672Z,988.98
2017-03-12T04:49:52.397Z,988.94
2017-03-12T04:51:03.109Z,988.94
2017-03-12T04:52:13.819Z,988.95
2017-03-12T04:53:24.528Z,988.93
2017-03-12T04:54:35.246Z,988.89
2017-03-12T04:55:45.960Z,988.91
2017-03-12T04:56:56.689Z,988.91
2017-03-12T04:58:07.470Z,988.87
2017-03-12T04:59:18.201Z,988.92
2017-03-12T05:00:28.532Z,988.9
2017-03-12T05:01:38.452Z,988.87
2017-03-12T05:02:49.174Z,988.86
2017-03-12T05:03:59.515Z,988.86
2017-03-12T05:05:10.243Z,988.86
2017-03-12T05:06:20.986Z,988.89
2017-03-12T05:07:31.314Z,988.92
2017-03-12T05:08:42.054Z,988.92
2017-03-12T05:09:52.786Z,988.88
2017-03-12T05:11:03.511Z,988.88
2017-03-12T05:12:14.251Z,988.88
2017-03-12T05:13:24.971Z,988.89
2017-03-12T05:14:35.288Z,988.87
2017-03-12T05:15:45.596Z,988.89
2017-03-12T05:16:56.320Z,988.92
2017-03-12T05:18:07.046Z,988.91
2017-03-12T05:19:17.387Z,988.94
2017-03-12T05:20:28.113Z,988.93
2017-03-12T05:21:38.841Z,988.92
2017-03-12T05:22:49.577Z,988.98
2017-03-12T05:24:00.294Z,988.95
2017-03-12T05:25:10.995Z,988.93
2017-03-12T05:26:21.315Z,988.92
2017-03-12T05:27:31.648Z,988.94
2017-03-12T05:28:42.363Z,988.94
2017-03-12T05:29:53.078Z,988.95
2017-03-12T05:31:03.789Z,988.9
2017-03-12T05:32:14.509Z,988.94
2017-03-12T05:33:24.850Z,988.93
2017-03-12T05:34:35.175Z,988.92
2017-03-12T05:35:45.875Z,988.91
2017-03-12T05:36:56.602Z,988.94
2017-03-12T05:38:07.321Z,988.92
2017-03-12T05:39:18.047Z,988.93
2017-03-12T05:40:28.760Z,988.95
2017-03-12T05:41:39.067Z,988.96
2017-03-12T05:42:49.795Z,988.93
2017-03-12T05:44:00.500Z,988.93
2017-03-12T05:45:11.226Z,988.92
2017-03-12T05:46:21.544Z,988.93
2017-03-12T05:47:31.878Z,988.9
2017-03-12T05:48:42.596Z,988.93
2017-03-12T05:49:53.320Z,988.93
2017-03-12T05:51:04.037Z,988.9
2017-03-12T05:52:14.747Z,988.92
2017-03-12T05:53:25.453Z,988.94
2017-03-12T05:54:36.169Z,988.92
2017-03-12T05:55:46.939Z,988.93
2017-03-12T05:56:57.652Z,988.92
2017-03-12T05:58:08.384Z,988.96
2017-03-12T05:59:19.087Z,988.97
2017-03-12T06:00:29.405Z,988.96
2017-03-12T06:01:39.729Z,988.95
2017-03-12T06:02:50.444Z,988.97
2017-03-12T06:04:01.143Z,988.92
2017-03-12T06:05:11.868Z,988.93
2017-03-12T06:06:22.590Z,988.92
2017-03-12T06:07:33.314Z,988.89
2017-03-12T06:08:43.649Z,988.94
2017-03-12T06:09:54.361Z,988.85
2017-03-12T06:11:05.086Z,988.94
2017-03-12T06:12:15.799Z,988.96
2017-03-12T06:13:26.511Z,988.92
2017-03-12T06:14:37.250Z,988.92
2017-03-12T06:15:47.967Z,988.92
2017-03-12T06:16:58.690Z,988.96
2017-03-12T06:18:09.390Z,988.93
2017-03-12T06:19:19.719Z,988.98
2017-03-12T06:20:29.650Z,988.96
2017-03-12T06:21:40.383Z,989.04
2017-03-12T06:22:51.102Z,989.07
2017-03-12T06:24:01.803Z,989.08
2017-03-12T06:25:12.522Z,989.08
2017-03-12T06:26:23.244Z,989.09
2017-03-12T06:27:33.157Z,989.12
2017-03-12T06:28:43.875Z,989.15
2017-03-12T06:29:54.185Z,989.19
2017-03-12T06:31:04.920Z,989.17
2017-03-12T06:32:14.841Z,989.12
2017-03-12T06:33:25.150Z,989.17
2017-03-12T06:34:35.462Z,989.17
2017-03-12T06:35:46.190Z,989.22
2017-03-12T06:36:56.893Z,989.23
2017-03-12T06:38:07.661Z,989.22
2017-03-12T06:39:18.362Z,989.22
2017-03-12T06:40:29.065Z,989.22
2017-03-12T06:41:39.789Z,989.21
2017-03-12T06:42:50.489Z,989.22
2017-03-12T06:44:01.197Z,989.2
2017-03-12T06:45:11.942Z,989.22
2017-03-12T06:46:22.663Z,989.26
2017-03-12T06:47:33.402Z,989.29
2017-03-12T06:48:44.131Z,989.25
2017-03-12T06:49:54.844Z,989.24
2017-03-12T06:51:05.173Z,989.29
2017-03-12T06:52:15.881Z,989.3
2017-03-12T06:53:26.601Z,989.23
2017-03-12T06:54:37.322Z,989.25
2017-03-12T06:55:47.639Z,989.22
2017-03-12T06:56:58.369Z,989.22
2017-03-12T06:58:08.290Z,989.22
2017-03-12T06:59:19.007Z,989.21
2017-03-12T07:00:29.323Z,989.25
2017-03-12T07:01:40.069Z,989.26
2017-03-12T07:02:50.801Z,989.29
2017-03-12T07:04:01.110Z,989.28
2017-03-12T07:05:11.822Z,989.32
2017-03-12T07:06:21.748Z,989.3
2017-03-12T07:07:32.462Z,989.31
2017-03-12T07:08:43.209Z,989.31
2017-03-12T07:09:53.553Z,989.32
2017-03-12T07:11:04.319Z,989.33
2017-03-12T07:12:15.036Z,989.38
2017-03-12T07:13:25.361Z,989.38
2017-03-12T07:14:36.093Z,989.35
2017-03-12T07:15:46.795Z,989.35
2017-03-12T07:16:57.542Z,989.36
2017-03-12T07:18:08.279Z,989.36
2017-03-12T07:19:18.999Z,989.38
2017-03-12T07:20:29.721Z,989.39
2017-03-12T07:21:40.435Z,989.43
2017-03-12T07:22:51.149Z,989.42
2017-03-12T07:24:01.853Z,989.4
2017-03-12T07:25:12.191Z,989.45
2017-03-12T07:26:22.899Z,989.4
2017-03-12T07:27:33.624Z,989.42
2017-03-12T07:28:44.343Z,989.41
2017-03-12T07:29:55.061Z,989.45
2017-03-12T07:31:05.376Z,989.46
2017-03-12T07:32:16.122Z,989.49
2017-03-12T07:33:26.426Z,989.52
2017-03-12T07:34:36.744Z,989.55
2017-03-12T07:35:47.459Z,989.53
2017-03-12T07:36:58.177Z,989.53
2017-03-12T07:38:08.878Z,989.5
2017-03-12T07:39:19.608Z,989.52
2017-03-12T07:40:30.338Z,989.54
2017-03-12T07:41:41.080Z,989.57
2017-03-12T07:42:51.836Z,989.6
2017-03-12T07:44:02.588Z,989.62
2017-03-12T07:45:13.342Z,989.62
2017-03-12T07:46:23.668Z,989.62
2017-03-12T07:47:33.998Z,989.63
2017-03-12T07:48:44.319Z,989.64
2017-03-12T07:49:54.646Z,989.68
2017-03-12T07:51:05.347Z,989.69
2017-03-12T07:52:16.085Z,989.72
2017-03-12T07:53:26.405Z,989.72
2017-03-12T07:54:37.130Z,989.8
2017-03-12T07:55:47.854Z,989.81
2017-03-12T07:56:58.592Z,989.85
2017-03-12T07:58:09.303Z,989.84
2017-03-12T07:59:19.618Z,989.85
2017-03-12T08:00:30.325Z,989.81
2017-03-12T08:01:40.695Z,989.77
2017-03-12T08:02:51.416Z,989.84
2017-03-12T08:04:02.126Z,989.84
2017-03-12T08:05:12.838Z,989.87
2017-03-12T08:06:23.169Z,989.89
2017-03-12T08:07:33.481Z,989.9
2017-03-12T08:08:43.797Z,989.9
2017-03-12T08:09:54.523Z,990
2017-03-12T08:11:05.271Z,989.94
2017-03-12T08:12:16.008Z,989.98
2017-03-12T08:13:26.727Z,989.92
2017-03-12T08:14:37.432Z,989.95
2017-03-12T08:15:48.199Z,989.96
2017-03-12T08:16:58.938Z,989.93
2017-03-12T08:18:09.691Z,990
2017-03-12T08:19:20.439Z,989.98
2017-03-12T08:20:31.144Z,989.95
2017-03-12T08:21:41.875Z,989.94
2017-03-12T08:22:52.609Z,989.84
2017-03-12T08:24:02.927Z,989.82
2017-03-12T08:25:13.247Z,989.78
2017-03-12T08:26:23.969Z,989.73
2017-03-12T08:27:34.700Z,989.8
2017-03-12T08:28:45.415Z,989.81
2017-03-12T08:29:56.134Z,989.85
2017-03-12T08:31:06.852Z,989.88
2017-03-12T08:32:17.584Z,989.9
2017-03-12T08:33:27.889Z,989.98
2017-03-12T08:34:38.610Z,989.92
2017-03-12T08:35:49.343Z,989.96
2017-03-12T08:37:00.059Z,989.97
2017-03-12T08:38:10.769Z,989.97
2017-03-12T08:39:21.490Z,989.92
2017-03-12T08:40:32.219Z,989.96
2017-03-12T08:41:42.554Z,990.01
2017-03-12T08:42:53.280Z,990.07
2017-03-12T08:44:03.988Z,990.09
2017-03-12T08:45:14.724Z,990.15
2017-03-12T08:46:25.070Z,990.15
2017-03-12T08:47:35.398Z,990.1
2017-03-12T08:48:45.722Z,990.14
2017-03-12T08:49:56.436Z,990.12
2017-03-12T08:51:07.143Z,990.07
2017-03-12T08:52:17.465Z,990.13
2017-03-12T08:53:28.199Z,990.14
2017-03-12T08:54:38.906Z,990.09
2017-03-12T08:55:49.621Z,990.08
2017-03-12T08:57:00.339Z,990.11
2017-03-12T08:58:11.052Z,990.08
2017-03-12T08:59:21.381Z,990.04
2017-03-12T09:00:32.110Z,990.04
2017-03-12T09:01:42.434Z,990.09
2017-03-12T09:02:53.155Z,990.09
2017-03-12T09:04:03.880Z,990.12
2017-03-12T09:05:14.606Z,990.12
2017-03-12T09:06:25.348Z,990.14
2017-03-12T09:07:35.659Z,990.18
2017-03-12T09:08:45.998Z,990.15
2017-03-12T09:09:56.717Z,990.16
2017-03-12T09:11:07.428Z,990.15
2017-03-12T09:12:17.756Z,990.18
2017-03-12T09:13:28.107Z,990.14
2017-03-12T09:14:38.832Z,990.13
2017-03-12T09:15:49.566Z,990.09
2017-03-12T09:17:00.270Z,990.13
2017-03-12T09:18:10.976Z,990.12
2017-03-12T09:19:20.912Z,990.1
2017-03-12T09:20:31.623Z,990.09
2017-03-12T09:21:42.334Z,990.07
2017-03-12T09:22:53.067Z,990.12
2017-03-12T09:24:03.800Z,990.11
2017-03-12T09:25:14.522Z,990.1
2017-03-12T09:26:25.238Z,990.11
2017-03-12T09:27:35.587Z,990.1
2017-03-12T09:28:45.531Z,990.13
2017-03-12T09:29:56.242Z,990.11
2017-03-12T09:31:06.960Z,990.12
2017-03-12T09:32:17.687Z,990.1
2017-03-12T09:33:28.423Z,990.16
2017-03-12T09:34:39.154Z,990.11
2017-03-12T09:35:49.879Z,990.14
2017-03-12T09:37:00.595Z,990.12
2017-03-12T09:38:11.314Z,990.08
2017-03-12T09:39:22.070Z,990.11
2017-03-12T09:40:32.769Z,990.15
2017-03-12T09:41:43.089Z,990.2
2017-03-12T09:42:53.806Z,990.22
2017-03-12T09:44:04.527Z,990.23
2017-03-12T09:45:14.872Z,990.23
2017-03-12T09:46:24.810Z,990.17
2017-03-12T09:47:35.529Z,990.16
2017-03-12T09:48:45.460Z,990.12
2017-03-12T09:49:56.174Z,990.13
2017-03-12T09:51:06.936Z,990.15
2017-03-12T09:52:17.656Z,990.14
2017-03-12T09:53:28.380Z,990.17
2017-03-12T09:54:39.129Z,990.18
2017-03-12T09:55:49.833Z,990.18
2017-03-12T09:57:00.547Z,990.15
2017-03-12T09:58:11.251Z,990.2
2017-03-12T09:59:21.187Z,990.19
2017-03-12T10:00:31.516Z,990.2
2017-03-12T10:01:42.230Z,990.19
2017-03-12T10:02:52.961Z,990.11
2017-03-12T10:04:03.673Z,990.16
2017-03-12T10:05:14.412Z,990.16
2017-03-12T10:06:24.747Z,990.1
2017-03-12T10:07:35.070Z,990.12
2017-03-12T10:08:45.785Z,990.13
2017-03-12T10:09:56.529Z,990.11
2017-03-12T10:11:07.247Z,990.08
2017-03-12T10:12:17.984Z,990.04
2017-03-12T10:13:28.313Z,990.03
2017-03-12T10:14:39.025Z,989.99
2017-03-12T10:15:49.746Z,990.02
2017-03-12T10:17:00.474Z,989.99
2017-03-12T10:18:11.243Z,990.01
2017-03-12T10:19:21.968Z,989.99
2017-03-12T10:20:32.692Z,990.04
2017-03-12T10:21:43.403Z,990.04
2017-03-12T10:22:54.142Z,990.09
2017-03-12T10:24:04.474Z,990.11
2017-03-12T10:25:15.202Z,990.17
2017-03-12T10:26:25.119Z,990.22
2017-03-12T10:27:35.448Z,990.22
2017-03-12T10:28:46.167Z,990.18
2017-03-12T10:29:56.916Z,990.14
2017-03-12T10:31:07.640Z,990.12
2017-03-12T10:32:18.344Z,990.1
2017-03-12T10:33:28.255Z,990.11
2017-03-12T10:34:38.981Z,990.11
2017-03-12T10:35:49.714Z,990.1
2017-03-12T10:37:00.446Z,990.1
2017-03-12T10:38:10.778Z,990.19
2017-03-12T10:39:21.100Z,990.35
2017-03-12T10:40:31.836Z,990.41
2017-03-12T10:41:42.566Z,990.36
2017-03-12T10:42:53.271Z,990.3
2017-03-12T10:44:03.990Z,990.32
2017-03-12T10:45:14.721Z,990.35
2017-03-12T10:46:25.056Z,990.35
2017-03-12T10:47:35.771Z,990.39
2017-03-12T10:48:46.094Z,990.31
2017-03-12T10:49:56.810Z,990.24
2017-03-12T10:51:07.556Z,990.2
2017-03-12T10:52:18.308Z,990.19
2017-03-12T10:53:28.651Z,990.15
2017-03-12T10:54:39.372Z,990.18
2017-03-12T10:55:50.183Z,990.2
2017-03-12T10:57:00.925Z,990.18
2017-03-12T10:58:11.270Z,990.23
2017-03-12T10:59:21.601Z,990.24
2017-03-12T11:00:32.338Z,990.21
2017-03-12T11:01:43.070Z,990.19
2017-03-12T11:02:53.393Z,990.19
2017-03-12T11:04:04.126Z,990.18
2017-03-12T11:05:14.855Z,990.22
2017-03-12T11:06:25.189Z,990.18
2017-03-12T11:07:35.906Z,990.2
2017-03-12T11:08:46.623Z,990.26
2017-03-12T11:09:57.336Z,990.34
2017-03-12T11:11:08.060Z,990.5
2017-03-12T11:12:18.391Z,990.5
2017-03-12T11:13:28.717Z,990.58
2017-03-12T11:14:39.435Z,990.57
2017-03-12T11:15:49.772Z,990.54
2017-03-12T11:17:00.503Z,990.49
2017-03-12T11:18:11.224Z,990.51
2017-03-12T11:19:21.563Z,990.46
2017-03-12T11:20:32.292Z,990.55
2017-03-12T11:21:43.029Z,990.67
2017-03-12T11:22:53.756Z,990.75
2017-03-12T11:24:04.504Z,990.66
2017-03-12T11:25:15.234Z,990.71
2017-03-12T11:26:25.958Z,990.72
2017-03-12T11:27:36.695Z,990.75
2017-03-12T11:28:47.454Z,990.76
2017-03-12T11:29:58.186Z,990.76
2017-03-12T11:31:08.911Z,990.72
2017-03-12T11:32:19.648Z,990.79
2017-03-12T11:33:29.973Z,990.69
2017-03-12T11:34:40.703Z,990.63
2017-03-12T11:35:51.445Z,990.65
2017-03-12T11:37:02.191Z,990.62
2017-03-12T11:38:12.931Z,990.65
2017-03-12T11:39:23.259Z,990.83
2017-03-12T11:40:32.784Z,990.75
2017-03-12T11:41:43.119Z,990.76
2017-03-12T11:42:53.851Z,990.72
2017-03-12T11:44:04.581Z,990.71
2017-03-12T11:45:15.312Z,990.69
2017-03-12T11:46:25.650Z,990.71
2017-03-12T11:47:35.589Z,990.72
2017-03-12T11:48:46.325Z,990.71
2017-03-12T11:49:57.059Z,990.68
2017-03-12T11:51:07.784Z,990.63
2017-03-12T11:52:18.531Z,990.64
2017-03-12T11:53:28.842Z,990.65
2017-03-12T11:54:39.173Z,990.66
2017-03-12T11:55:49.905Z,990.62
2017-03-12T11:57:00.620Z,990.54
2017-03-12T11:58:11.346Z,990.54
2017-03-12T11:59:22.065Z,990.45
2017-03-12T12:00:31.620Z,990.42
2017-03-12T12:01:42.347Z,990.43
2017-03-12T12:02:53.086Z,990.45
2017-03-12T12:04:03.820Z,990.45
2017-03-12T12:05:14.541Z,990.41
2017-03-12T12:06:24.870Z,990.44
2017-03-12T12:07:35.606Z,990.45
2017-03-12T12:08:46.376Z,990.41
2017-03-12T12:09:57.095Z,990.46
2017-03-12T12:11:07.829Z,990.49
2017-03-12T12:12:18.563Z,990.47
2017-03-12T12:13:29.293Z,990.51
2017-03-12T12:14:39.632Z,990.51
2017-03-12T12:15:50.376Z,990.6
2017-03-12T12:17:00.682Z,990.62
2017-03-12T12:18:10.610Z,990.65
2017-03-12T12:19:21.353Z,990.66
2017-03-12T12:20:32.088Z,990.68
2017-03-12T12:21:42.811Z,990.63
2017-03-12T12:22:53.536Z,990.6
2017-03-12T12:24:03.861Z,990.61
2017-03-12T12:25:14.213Z,990.65
2017-03-12T12:26:24.932Z,990.64
2017-03-12T12:27:35.263Z,990.61
2017-03-12T12:28:45.598Z,990.62
2017-03-12T12:29:56.316Z,990.55
2017-03-12T12:31:06.654Z,990.42
2017-03-12T12:32:17.020Z,990.43
2017-03-12T12:33:27.363Z,990.42
2017-03-12T12:34:38.088Z,990.5
2017-03-12T12:35:48.844Z,990.53
2017-03-12T12:36:59.563Z,990.57
2017-03-12T12:38:10.301Z,990.64
2017-03-12T12:39:21.038Z,990.61
2017-03-12T12:40:31.770Z,990.53
2017-03-12T12:41:42.504Z,990.52
2017-03-12T12:42:53.249Z,990.5
2017-03-12T12:44:03.985Z,990.47
2017-03-12T12:45:14.319Z,990.5
2017-03-12T12:46:25.065Z,990.46
2017-03-12T12:47:35.423Z,990.4
2017-03-12T12:48:45.744Z,990.38
2017-03-12T12:49:56.470Z,990.4
2017-03-12T12:51:06.788Z,990.44
2017-03-12T12:52:17.139Z,990.33
2017-03-12T12:53:27.868Z,990.36
2017-03-12T12:54:37.833Z,990.34
2017-03-12T12:55:48.554Z,990.35
2017-03-12T12:56:59.299Z,990.37
2017-03-12T12:58:10.024Z,990.37
2017-03-12T12:59:20.775Z,990.39
2017-03-12T13:00:31.524Z,990.35
2017-03-12T13:01:41.511Z,990.33
2017-03-12T13:02:52.241Z,990.31
2017-03-12T13:04:02.960Z,990.32
2017-03-12T13:05:13.274Z,990.28
2017-03-12T13:06:24.016Z,990.27
2017-03-12T13:07:34.760Z,990.28
2017-03-12T13:08:45.485Z,990.27
2017-03-12T13:09:56.249Z,990.28
2017-03-12T13:11:06.579Z,990.3
2017-03-12T13:12:17.297Z,990.26
2017-03-12T13:13:27.607Z,990.29
2017-03-12T13:14:37.529Z,990.3
2017-03-12T13:15:48.255Z,990.3
2017-03-12T13:16:58.966Z,990.27
2017-03-12T13:18:09.700Z,990.31
2017-03-12T13:19:20.425Z,990.31
2017-03-12T13:20:30.756Z,990.3
2017-03-12T13:21:41.484Z,990.26
2017-03-12T13:22:52.210Z,990.28
2017-03-12T13:24:02.933Z,990.28
2017-03-12T13:25:13.682Z,990.28
2017-03-12T13:26:24.396Z,990.24
2017-03-12T13:27:35.125Z,990.25
2017-03-12T13:28:45.881Z,990.22
2017-03-12T13:29:56.590Z,990.24
2017-03-12T13:31:06.925Z,990.24
2017-03-12T13:32:17.654Z,990.25
2017-03-12T13:33:28.392Z,990.28
2017-03-12T13:34:39.121Z,990.26
2017-03-12T13:35:49.863Z,990.3
2017-03-12T13:37:00.587Z,990.29
2017-03-12T13:38:11.318Z,990.33
2017-03-12T13:39:22.042Z,990.32
2017-03-12T13:40:32.378Z,990.31
2017-03-12T13:41:43.101Z,990.27
2017-03-12T13:42:53.880Z,990.3
2017-03-12T13:44:04.610Z,990.3
2017-03-12T13:45:15.332Z,990.26
2017-03-12T13:46:26.050Z,990.23
2017-03-12T13:47:35.993Z,990.25
2017-03-12T13:48:46.719Z,990.22
2017-03-12T13:49:57.431Z,990.21
2017-03-12T13:51:08.176Z,990.24
2017-03-12T13:52:18.927Z,990.22
2017-03-12T13:53:29.249Z,990.17
2017-03-12T13:54:39.586Z,990.19
2017-03-12T13:55:50.344Z,990.2
2017-03-12T13:57:01.093Z,990.22
2017-03-12T13:58:11.432Z,990.24
2017-03-12T13:59:22.158Z,990.26
2017-03-12T14:00:32.476Z,990.24
2017-03-12T14:01:43.213Z,990.24
2017-03-12T14:02:53.927Z,990.21
2017-03-12T14:04:04.666Z,990.16
2017-03-12T14:05:15.390Z,990.15
2017-03-12T14:06:26.120Z,990.12
2017-03-12T14:07:36.848Z,990.11
2017-03-12T14:08:47.601Z,990.11
2017-03-12T14:09:58.335Z,990.15
2017-03-12T14:11:08.258Z,990.14
2017-03-12T14:12:19.012Z,990.11
2017-03-12T14:13:29.735Z,990.11
2017-03-12T14:14:40.064Z,990.08
2017-03-12T14:15:50.805Z,990.12
2017-03-12T14:17:01.542Z,990.15
2017-03-12T14:18:12.267Z,990.11
2017-03-12T14:19:22.997Z,990.13
2017-03-12T14:20:33.700Z,990.15
2017-03-12T14:21:44.436Z,990.19
2017-03-12T14:22:55.196Z,990.18
2017-03-12T14:24:05.917Z,990.19
2017-03-12T14:25:16.621Z,990.21
2017-03-12T14:26:27.352Z,990.17
2017-03-12T14:27:38.068Z,990.19
2017-03-12T14:28:48.822Z,990.22
2017-03-12T14:29:59.537Z,990.2
2017-03-12T14:31:12.257Z,990.2
2017-03-12T14:32:22.985Z,990.22
2017-03-12T14:33:33.699Z,990.17
2017-03-12T14:34:44.427Z,990.22
2017-03-12T14:35:55.156Z,990.23
2017-03-12T14:37:05.914Z,990.21
2017-03-12T14:38:16.632Z,990.22
2017-03-12T14:39:27.347Z,990.22
2017-03-12T14:40:38.079Z,990.17
2017-03-12T14:41:48.805Z,990.19
2017-03-12T14:42:59.532Z,990.22
2017-03-12T14:44:10.304Z,990.19
2017-03-12T14:45:21.051Z,990.2
2017-03-12T14:46:31.796Z,990.17